KMWL/MWL METAR and TAF weather

Enter ICAO airport designator
Station Type Date Time Source
KMWL METAR 2021/01/16 02:53 UTC NOAA

KMWL 160253Z AUTO 28008KT 10SM OVC055 05/M11 A3007 RMK AO2 SLP184 T00501106 51014


Station Type Date Time Source
KMWL Decoded METAR 2021/01/16 02:53 UTC NOAA

MINERAL WELLS AIRPORT, TX, United States (KMWL) 32-47N 098-04W 284M
Jan 15, 2021 - 09:53 PM EST / 2021.01.16 0253 UTC
Wind: from the W (280 degrees) at 9 MPH (8 KT):0
Visibility: 10 mile(s):0
Sky conditions: overcast
Temperature: 41.0 F (5.0 C)
Dew Point: 12.9 F (-10.6 C)
Relative Humidity: 31%
Pressure (altimeter): 30.07 in. Hg (1018 hPa)
Pressure tendency: 0.04 inches (1.4 hPa) higher than three hours ago
ob: KMWL 160253Z AUTO 28008KT 10SM OVC055 05/M11 A3007 RMK AO2 SLP184 T00501106 51014
cycle: 3

Station Type Date Time Source
KMWL TAF UTC NOAA

Error!

Example: see airport list